createdAt,value
2018-09-27T00:02:22.854Z,7.30
2018-09-27T00:04:51.365Z,7.30
2018-09-27T00:07:19.849Z,7.30
2018-09-27T00:09:48.394Z,7.40
2018-09-27T00:12:16.885Z,7.40
2018-09-27T00:14:45.426Z,7.30
2018-09-27T00:17:14.109Z,7.30
2018-09-27T00:19:42.707Z,7.30
2018-09-27T00:22:11.166Z,7.30
2018-09-27T00:24:39.729Z,7.40
2018-09-27T00:27:08.266Z,7.30
2018-09-27T00:29:36.838Z,7.30
2018-09-27T00:32:05.364Z,7.30
2018-09-27T00:34:33.932Z,7.20
2018-09-27T00:37:03.107Z,7.20
2018-09-27T00:39:31.649Z,7.30
2018-09-27T00:42:00.161Z,7.20
2018-09-27T00:44:28.722Z,7.20
2018-09-27T00:46:57.311Z,7.10
2018-09-27T00:49:25.906Z,7.10
2018-09-27T00:51:54.424Z,7.00
2018-09-27T00:54:23.008Z,7.00
2018-09-27T00:56:51.548Z,7.00
2018-09-27T00:59:20.093Z,7.00
2018-09-27T01:01:48.625Z,7.00
2018-09-27T01:04:17.178Z,6.90
2018-09-27T01:06:45.692Z,7.00
2018-09-27T01:09:14.269Z,7.00
2018-09-27T01:11:42.793Z,7.00
2018-09-27T01:14:11.321Z,6.90
2018-09-27T01:16:39.848Z,6.90
2018-09-27T01:19:08.373Z,6.90
2018-09-27T01:21:36.865Z,6.90
2018-09-27T01:24:05.414Z,6.90
2018-09-27T01:26:33.929Z,6.90
2018-09-27T01:29:02.420Z,6.90
2018-09-27T01:31:30.935Z,6.80
2018-09-27T01:33:59.450Z,6.90
2018-09-27T01:36:27.970Z,6.90
2018-09-27T01:38:56.477Z,6.90
2018-09-27T01:41:25.011Z,6.90
2018-09-27T01:43:53.510Z,6.80
2018-09-27T01:46:22.042Z,6.70
2018-09-27T01:48:50.545Z,6.80
2018-09-27T01:51:19.073Z,6.70
2018-09-27T01:53:47.605Z,6.50
2018-09-27T01:56:16.136Z,6.50
2018-09-27T01:58:44.629Z,6.60
2018-09-27T02:01:13.157Z,6.50
2018-09-27T02:03:41.661Z,6.40
2018-09-27T02:06:10.182Z,6.40
2018-09-27T02:08:38.689Z,6.40
2018-09-27T02:11:07.222Z,6.50
2018-09-27T02:13:35.721Z,6.50
2018-09-27T02:16:04.261Z,6.50
2018-09-27T02:18:32.788Z,6.50
2018-09-27T02:21:01.310Z,6.50
2018-09-27T02:23:29.819Z,6.40
2018-09-27T02:25:58.340Z,6.40
2018-09-27T02:28:26.847Z,6.40
2018-09-27T02:30:55.377Z,6.50
2018-09-27T02:33:23.868Z,6.30
2018-09-27T02:35:52.401Z,6.30
2018-09-27T02:38:20.906Z,6.40
2018-09-27T02:40:49.454Z,6.40
2018-09-27T02:43:17.965Z,6.40
2018-09-27T02:45:46.493Z,6.30
2018-09-27T02:48:15.006Z,6.30
2018-09-27T02:50:43.522Z,6.30
2018-09-27T02:53:12.034Z,6.30
2018-09-27T02:55:40.562Z,6.30
2018-09-27T02:58:09.085Z,6.10
2018-09-27T03:00:37.613Z,6.20
2018-09-27T03:03:06.361Z,6.20
2018-09-27T03:05:34.894Z,6.20
2018-09-27T03:08:03.406Z,6.20
2018-09-27T03:10:31.946Z,6.20
2018-09-27T03:13:00.450Z,6.10
2018-09-27T03:15:28.953Z,6.10
2018-09-27T03:17:57.517Z,6.00
2018-09-27T03:20:26.073Z,5.90
2018-09-27T03:22:54.621Z,6.00
2018-09-27T03:25:23.184Z,6.00
2018-09-27T03:27:51.709Z,5.90
2018-09-27T03:30:20.218Z,5.90
2018-09-27T03:32:48.748Z,5.90
2018-09-27T03:35:17.271Z,5.90
2018-09-27T03:37:45.807Z,5.90
2018-09-27T03:40:14.439Z,5.90
2018-09-27T03:42:42.860Z,5.90
2018-09-27T03:45:11.375Z,5.90
2018-09-27T03:47:39.910Z,5.90
2018-09-27T03:50:08.450Z,5.90
2018-09-27T03:52:36.980Z,5.90
2018-09-27T03:55:05.517Z,5.80
2018-09-27T03:57:34.047Z,5.70
2018-09-27T04:00:02.573Z,5.70
2018-09-27T04:02:31.117Z,5.70
2018-09-27T04:04:59.617Z,5.80
2018-09-27T04:07:28.163Z,5.80
2018-09-27T04:09:56.672Z,5.70
2018-09-27T04:12:25.239Z,5.80
2018-09-27T04:14:53.747Z,5.80
2018-09-27T04:17:22.569Z,5.70
2018-09-27T04:19:51.057Z,5.70
2018-09-27T04:22:19.589Z,5.60
2018-09-27T04:24:48.128Z,5.70
2018-09-27T04:27:16.647Z,5.60
2018-09-27T04:29:45.181Z,5.60
2018-09-27T04:32:13.681Z,5.50
2018-09-27T04:34:42.207Z,5.60
2018-09-27T04:37:10.714Z,5.60
2018-09-27T04:39:39.256Z,5.50
2018-09-27T04:42:07.794Z,5.50
2018-09-27T04:44:36.321Z,5.60
2018-09-27T04:47:04.831Z,5.60
2018-09-27T04:49:33.361Z,5.50
2018-09-27T04:52:01.859Z,5.50
2018-09-27T04:54:30.439Z,5.50
2018-09-27T04:56:58.904Z,5.50
2018-09-27T04:59:27.550Z,5.40
2018-09-27T05:01:56.058Z,5.40
2018-09-27T05:04:24.591Z,5.40
2018-09-27T05:06:53.285Z,5.40
2018-09-27T05:09:21.873Z,5.30
2018-09-27T05:11:50.445Z,5.40
2018-09-27T05:14:19.009Z,5.50
2018-09-27T05:16:47.561Z,5.40
2018-09-27T05:19:17.067Z,5.40
2018-09-27T05:21:50.349Z,5.30
2018-09-27T05:24:23.414Z,5.30
2018-09-27T05:26:52.090Z,5.20
2018-09-27T05:29:20.963Z,5.30
2018-09-27T05:31:49.521Z,5.40
2018-09-27T05:34:18.066Z,5.40
2018-09-27T05:36:46.672Z,5.30
2018-09-27T05:39:17.806Z,5.40
2018-09-27T05:41:47.585Z,5.40
2018-09-27T05:44:16.121Z,5.40
2018-09-27T05:46:44.762Z,5.40
2018-09-27T05:49:13.785Z,5.40
2018-09-27T05:51:42.383Z,5.40
2018-09-27T05:54:10.917Z,5.40
2018-09-27T05:56:40.133Z,5.40
2018-09-27T05:59:09.382Z,5.40
2018-09-27T06:01:37.900Z,5.40
2018-09-27T06:04:06.514Z,5.50
2018-09-27T06:06:35.228Z,5.50
2018-09-27T06:09:05.241Z,5.50
2018-09-27T06:11:33.822Z,5.60
2018-09-27T06:14:02.318Z,5.50
2018-09-27T06:16:31.169Z,5.50
2018-09-27T06:19:00.146Z,5.50
2018-09-27T06:21:28.999Z,5.50
2018-09-27T06:23:58.165Z,5.50
2018-09-27T06:26:26.865Z,5.40
2018-09-27T06:28:55.411Z,5.60
2018-09-27T06:31:23.926Z,5.60
2018-09-27T06:33:56.130Z,5.70
2018-09-27T06:36:26.074Z,5.70
2018-09-27T06:38:54.945Z,5.60
2018-09-27T06:41:23.496Z,5.80
2018-09-27T06:43:52.045Z,6.00
2018-09-27T06:46:20.580Z,6.20
2018-09-27T06:48:49.142Z,6.30
2018-09-27T06:51:17.664Z,6.40
2018-09-27T06:53:46.173Z,6.60
2018-09-27T06:56:14.733Z,6.70
2018-09-27T06:58:43.239Z,6.80
2018-09-27T07:01:11.957Z,6.90
2018-09-27T07:03:40.466Z,7.10
2018-09-27T07:06:09.014Z,7.20
2018-09-27T07:08:37.573Z,7.40
2018-09-27T07:11:06.492Z,7.40
2018-09-27T07:13:35.324Z,7.50
2018-09-27T07:16:04.579Z,7.50
2018-09-27T07:18:33.801Z,7.70
2018-09-27T07:21:02.418Z,7.80
2018-09-27T07:23:30.925Z,7.90
2018-09-27T07:25:59.494Z,8.00
2018-09-27T07:28:28.003Z,8.20
2018-09-27T07:30:56.715Z,8.30
2018-09-27T07:33:25.232Z,8.40
2018-09-27T07:35:54.163Z,8.50
2018-09-27T07:38:22.752Z,8.50
2018-09-27T07:40:51.316Z,8.60
2018-09-27T07:43:20.146Z,8.80
2018-09-27T07:45:48.737Z,8.80
2018-09-27T07:48:17.499Z,8.90
2018-09-27T07:50:46.241Z,9.10
2018-09-27T07:53:15.279Z,9.20
2018-09-27T07:55:44.249Z,9.30
2018-09-27T07:58:12.779Z,9.40
2018-09-27T08:00:41.453Z,9.60
2018-09-27T08:03:10.278Z,9.90
2018-09-27T08:05:38.947Z,10.00
2018-09-27T08:08:08.119Z,10.10
2018-09-27T08:10:36.658Z,10.20
2018-09-27T08:13:05.183Z,10.20
2018-09-27T08:15:35.384Z,10.30
2018-09-27T08:18:04.368Z,10.50
2018-09-27T08:20:33.331Z,10.70
2018-09-27T08:23:05.964Z,10.90
2018-09-27T08:25:34.735Z,11.10
2018-09-27T08:28:03.284Z,11.20
2018-09-27T08:30:31.810Z,11.30
2018-09-27T08:33:00.435Z,11.50
2018-09-27T08:35:29.310Z,11.60
2018-09-27T08:37:58.021Z,11.80
2018-09-27T08:40:26.577Z,11.90
2018-09-27T08:42:55.377Z,12.10
2018-09-27T08:45:24.661Z,12.40
2018-09-27T08:47:53.610Z,12.60
2018-09-27T08:50:22.132Z,12.60
2018-09-27T08:52:51.405Z,12.70
2018-09-27T08:55:22.207Z,12.80
2018-09-27T08:57:51.138Z,12.90
2018-09-27T09:00:20.216Z,13.10
2018-09-27T09:02:48.861Z,13.30
2018-09-27T09:05:17.405Z,13.40
2018-09-27T09:07:45.992Z,13.50
2018-09-27T09:10:14.537Z,13.70
2018-09-27T09:12:43.101Z,13.80
2018-09-27T09:15:11.758Z,14.10
2018-09-27T09:17:40.478Z,14.20
2018-09-27T09:20:09.511Z,14.20
2018-09-27T09:22:38.086Z,14.30
2018-09-27T09:25:06.952Z,14.50
2018-09-27T09:27:36.661Z,14.40
2018-09-27T09:30:05.257Z,14.60
2018-09-27T09:32:33.805Z,14.90
2018-09-27T09:35:02.309Z,14.90
2018-09-27T09:37:30.839Z,15.10
2018-09-27T09:39:59.401Z,15.20
2018-09-27T09:42:30.869Z,15.50
2018-09-27T09:44:59.420Z,15.60
2018-09-27T09:47:28.585Z,15.70
2018-09-27T09:49:57.692Z,16.00
2018-09-27T09:52:28.274Z,16.10
2018-09-27T09:54:57.250Z,16.20
2018-09-27T09:57:26.329Z,16.30
2018-09-27T09:59:56.342Z,16.20
2018-09-27T10:02:28.143Z,16.20
2018-09-27T10:04:56.790Z,16.50
2018-09-27T10:07:26.082Z,16.70
2018-09-27T10:09:54.730Z,16.70
2018-09-27T10:12:23.282Z,16.80
2018-09-27T10:14:51.852Z,16.80
2018-09-27T10:17:20.713Z,16.90
2018-09-27T10:19:49.258Z,17.10
2018-09-27T10:22:18.141Z,17.10
2018-09-27T10:24:46.717Z,17.10
2018-09-27T10:27:15.369Z,17.40
2018-09-27T10:29:44.145Z,17.50
2018-09-27T10:32:12.661Z,17.50
2018-09-27T10:34:41.302Z,17.70
2018-09-27T10:37:09.745Z,17.60
2018-09-27T10:39:38.399Z,17.70
2018-09-27T10:42:06.965Z,17.70
2018-09-27T10:44:35.581Z,17.90
2018-09-27T10:47:04.661Z,18.00
2018-09-27T10:49:33.655Z,18.10
2018-09-27T10:52:02.357Z,18.00
2018-09-27T10:54:30.927Z,18.10
2018-09-27T10:56:59.589Z,18.30
2018-09-27T10:59:28.432Z,18.40
2018-09-27T11:01:56.925Z,18.40
2018-09-27T11:04:25.457Z,18.60
2018-09-27T11:06:54.089Z,18.60
2018-09-27T11:09:22.632Z,18.60
2018-09-27T11:11:51.165Z,18.80
2018-09-27T11:14:20.885Z,19.00
2018-09-27T11:16:50.148Z,19.00
2018-09-27T11:19:18.741Z,19.10
2018-09-27T11:21:47.809Z,19.30
2018-09-27T11:24:16.435Z,19.20
2018-09-27T11:26:44.941Z,19.30
2018-09-27T11:29:19.487Z,19.40
2018-09-27T11:31:54.177Z,19.40
2018-09-27T11:34:23.032Z,19.40
2018-09-27T11:36:51.807Z,19.40
2018-09-27T11:39:20.608Z,19.40
2018-09-27T11:41:49.293Z,19.50
2018-09-27T11:44:18.065Z,19.70
2018-09-27T11:46:47.346Z,19.90
2018-09-27T11:49:16.425Z,19.90
2018-09-27T11:51:45.158Z,19.90
2018-09-27T11:54:13.710Z,19.90
2018-09-27T11:56:42.288Z,20.10
2018-09-27T11:59:11.143Z,20.10
2018-09-27T12:01:41.403Z,20.20
2018-09-27T12:04:09.931Z,20.20
2018-09-27T12:06:38.758Z,20.30
2018-09-27T12:09:09.894Z,20.30
2018-09-27T12:11:38.487Z,20.40
2018-09-27T12:14:07.632Z,20.50
2018-09-27T12:16:36.422Z,20.50
2018-09-27T12:19:07.337Z,20.50
2018-09-27T12:21:36.338Z,20.60
2018-09-27T12:24:05.041Z,20.70
2018-09-27T12:26:36.028Z,20.70
2018-09-27T12:29:04.705Z,20.70
2018-09-27T12:31:35.464Z,20.90
2018-09-27T12:34:04.103Z,21.00
2018-09-27T12:36:32.695Z,21.00
2018-09-27T12:39:01.311Z,21.00
2018-09-27T12:41:29.804Z,20.90
2018-09-27T12:43:58.699Z,21.00
2018-09-27T12:46:27.668Z,21.00
2018-09-27T12:48:56.507Z,21.20
2018-09-27T12:51:25.139Z,21.30
2018-09-27T12:53:53.614Z,21.20
2018-09-27T12:56:23.126Z,21.10
2018-09-27T12:58:51.726Z,21.40
2018-09-27T13:01:20.337Z,21.40
2018-09-27T13:03:50.098Z,21.30
2018-09-27T13:06:18.675Z,21.40
2018-09-27T13:08:47.302Z,21.40
2018-09-27T13:11:15.823Z,21.50
2018-09-27T13:13:44.406Z,21.60
2018-09-27T13:16:13.033Z,21.40
2018-09-27T13:18:41.925Z,21.40
2018-09-27T13:21:10.477Z,21.30
2018-09-27T13:23:39.229Z,21.30
2018-09-27T13:26:08.333Z,21.40
2018-09-27T13:28:37.660Z,21.40
2018-09-27T13:31:06.697Z,21.50
2018-09-27T13:33:35.377Z,21.70
2018-09-27T13:36:04.714Z,21.60
2018-09-27T13:38:34.067Z,21.60
2018-09-27T13:41:02.848Z,21.70
2018-09-27T13:43:31.618Z,21.70
2018-09-27T13:46:00.129Z,21.70
2018-09-27T13:48:28.783Z,21.70
2018-09-27T13:50:57.452Z,21.80
2018-09-27T13:53:26.097Z,21.70
2018-09-27T13:55:54.637Z,21.70
2018-09-27T13:58:23.213Z,21.70
2018-09-27T14:00:52.104Z,21.70
2018-09-27T14:03:21.189Z,21.60
2018-09-27T14:05:49.835Z,21.50
2018-09-27T14:08:19.015Z,21.50
2018-09-27T14:10:47.589Z,21.50
2018-09-27T14:13:16.150Z,21.80
2018-09-27T14:15:45.610Z,21.70
2018-09-27T14:18:14.278Z,21.70
2018-09-27T14:20:42.794Z,21.80
2018-09-27T14:23:11.407Z,21.70
2018-09-27T14:25:40.223Z,21.70
2018-09-27T14:28:08.745Z,21.80
2018-09-27T14:30:37.270Z,21.80
2018-09-27T14:33:05.893Z,21.80
2018-09-27T14:35:34.498Z,21.70
2018-09-27T14:38:03.037Z,21.60
2018-09-27T14:40:31.554Z,21.70
2018-09-27T14:43:00.110Z,21.60
2018-09-27T14:45:28.625Z,21.50
2018-09-27T14:47:57.348Z,21.60
2018-09-27T14:50:25.734Z,21.60
2018-09-27T14:52:54.277Z,21.60
2018-09-27T14:55:22.803Z,21.60
2018-09-27T14:57:51.403Z,21.50
2018-09-27T15:00:19.958Z,21.60
2018-09-27T15:02:48.514Z,21.50
2018-09-27T15:05:17.029Z,21.50
2018-09-27T15:07:45.605Z,21.60
2018-09-27T15:10:14.174Z,21.70
2018-09-27T15:12:42.962Z,21.80
2018-09-27T15:15:11.497Z,21.60
2018-09-27T15:17:40.082Z,21.60
2018-09-27T15:20:08.649Z,21.60
2018-09-27T15:22:37.266Z,21.40
2018-09-27T15:25:06.097Z,21.30
2018-09-27T15:27:34.616Z,21.20
2018-09-27T15:30:03.227Z,21.10
2018-09-27T15:32:31.738Z,21.00
2018-09-27T15:35:00.413Z,21.00
2018-09-27T15:37:29.171Z,21.00
2018-09-27T15:39:57.765Z,21.00
2018-09-27T15:42:26.259Z,21.00
2018-09-27T15:44:54.809Z,21.00
2018-09-27T15:47:23.317Z,21.00
2018-09-27T15:49:51.881Z,21.00
2018-09-27T15:52:20.395Z,21.00
2018-09-27T15:54:48.930Z,21.00
2018-09-27T15:57:17.437Z,20.80
2018-09-27T15:59:46.022Z,20.70
2018-09-27T16:02:14.546Z,20.70
2018-09-27T16:04:43.113Z,20.50
2018-09-27T16:07:11.717Z,20.40
2018-09-27T16:09:40.251Z,20.40
2018-09-27T16:12:08.782Z,20.20
2018-09-27T16:14:37.346Z,20.10
2018-09-27T16:17:06.096Z,20.00
2018-09-27T16:19:34.849Z,19.90
2018-09-27T16:22:03.456Z,19.90
2018-09-27T16:24:31.984Z,19.80
2018-09-27T16:27:00.505Z,19.60
2018-09-27T16:29:29.065Z,19.50
2018-09-27T16:31:57.571Z,19.40
2018-09-27T16:34:26.109Z,19.30
2018-09-27T16:36:54.615Z,19.20
2018-09-27T16:39:23.149Z,19.20
2018-09-27T16:41:51.683Z,19.00
2018-09-27T16:44:20.254Z,18.90
2018-09-27T16:46:48.820Z,18.70
2018-09-27T16:49:17.325Z,18.60
2018-09-27T16:51:46.105Z,18.70
2018-09-27T16:54:14.623Z,18.60
2018-09-27T16:56:43.168Z,18.50
2018-09-27T16:59:11.681Z,18.40
2018-09-27T17:01:40.303Z,18.40
2018-09-27T17:04:08.774Z,18.30
2018-09-27T17:06:37.322Z,18.10
2018-09-27T17:09:07.346Z,17.90
2018-09-27T17:11:36.004Z,17.80
2018-09-27T17:14:04.534Z,17.60
2018-09-27T17:16:33.116Z,17.50
2018-09-27T17:19:01.723Z,17.30
2018-09-27T17:21:30.257Z,17.10
2018-09-27T17:23:58.787Z,17.10
2018-09-27T17:26:27.345Z,16.90
2018-09-27T17:28:55.849Z,16.80
2018-09-27T17:31:24.479Z,16.70
2018-09-27T17:33:53.006Z,16.60
2018-09-27T17:36:21.566Z,16.40
2018-09-27T17:38:50.329Z,16.30
2018-09-27T17:41:18.902Z,16.20
2018-09-27T17:43:47.466Z,16.20
2018-09-27T17:46:16.011Z,16.00
2018-09-27T17:48:44.525Z,15.90
2018-09-27T17:51:13.073Z,15.80
2018-09-27T17:53:41.602Z,15.70
2018-09-27T17:56:10.205Z,15.60
2018-09-27T17:58:38.772Z,15.60
2018-09-27T18:01:07.278Z,15.50
2018-09-27T18:03:35.790Z,15.50
2018-09-27T18:06:04.336Z,15.40
2018-09-27T18:08:32.837Z,15.30
2018-09-27T18:11:01.385Z,15.20
2018-09-27T18:13:29.943Z,15.00
2018-09-27T18:15:58.425Z,15.00
2018-09-27T18:18:26.980Z,15.00
2018-09-27T18:20:55.478Z,14.90
2018-09-27T18:23:24.017Z,14.80
2018-09-27T18:25:52.534Z,14.70
2018-09-27T18:28:21.059Z,14.70
2018-09-27T18:30:49.582Z,14.60
2018-09-27T18:33:18.518Z,14.60
2018-09-27T18:35:47.197Z,14.50
2018-09-27T18:38:15.981Z,14.40
2018-09-27T18:40:44.282Z,14.30
2018-09-27T18:43:12.881Z,14.20
2018-09-27T18:45:41.426Z,14.10
2018-09-27T18:48:09.971Z,14.10
2018-09-27T18:50:38.466Z,14.10
2018-09-27T18:53:07.253Z,14.00
2018-09-27T18:55:35.779Z,14.00
2018-09-27T18:58:04.381Z,13.90
2018-09-27T19:00:32.898Z,13.90
2018-09-27T19:03:01.491Z,13.80
2018-09-27T19:05:29.997Z,13.80
2018-09-27T19:07:58.589Z,13.80
2018-09-27T19:10:27.090Z,13.70
2018-09-27T19:12:55.618Z,13.60
2018-09-27T19:15:24.147Z,13.60
2018-09-27T19:17:52.698Z,13.50
2018-09-27T19:20:21.221Z,13.40
2018-09-27T19:22:49.864Z,13.40
2018-09-27T19:25:18.281Z,13.30
2018-09-27T19:27:46.846Z,13.20
2018-09-27T19:30:15.449Z,13.10
2018-09-27T19:32:43.989Z,13.00
2018-09-27T19:35:12.553Z,13.00
2018-09-27T19:37:41.156Z,13.00
2018-09-27T19:40:09.679Z,13.00
2018-09-27T19:42:38.215Z,13.00
2018-09-27T19:45:06.757Z,13.00
2018-09-27T19:47:35.293Z,12.90
2018-09-27T19:50:03.922Z,12.90
2018-09-27T19:52:32.462Z,12.90
2018-09-27T19:55:00.981Z,12.90
2018-09-27T19:57:29.539Z,12.80
2018-09-27T19:59:58.054Z,12.80
2018-09-27T20:02:26.684Z,12.80
2018-09-27T20:04:55.170Z,12.70
2018-09-27T20:07:23.877Z,12.70
2018-09-27T20:09:52.708Z,12.70
2018-09-27T20:12:21.678Z,12.70
2018-09-27T20:14:50.259Z,12.60
2018-09-27T20:17:19.595Z,12.50
2018-09-27T20:19:48.132Z,12.50
2018-09-27T20:22:16.648Z,12.50
2018-09-27T20:24:45.198Z,12.50
2018-09-27T20:27:13.705Z,12.40
2018-09-27T20:29:42.265Z,12.40
2018-09-27T20:32:10.782Z,12.30
2018-09-27T20:34:39.389Z,12.30
2018-09-27T20:37:07.893Z,12.30
2018-09-27T20:39:36.425Z,12.30
2018-09-27T20:42:04.946Z,12.10
2018-09-27T20:44:33.494Z,12.10
2018-09-27T20:47:02.001Z,12.20
2018-09-27T20:49:30.550Z,12.20
2018-09-27T20:51:59.062Z,12.20
2018-09-27T20:54:27.586Z,12.10
2018-09-27T20:56:56.092Z,12.10
2018-09-27T20:59:24.645Z,12.10
2018-09-27T21:01:53.150Z,12.00
2018-09-27T21:04:21.680Z,11.90
2018-09-27T21:06:50.201Z,11.90
2018-09-27T21:09:18.752Z,11.90
2018-09-27T21:11:47.261Z,11.80
2018-09-27T21:14:15.788Z,11.80
2018-09-27T21:16:44.313Z,11.80
2018-09-27T21:19:12.856Z,11.80
2018-09-27T21:21:41.377Z,11.80
2018-09-27T21:24:09.922Z,11.70
2018-09-27T21:26:38.427Z,11.70
2018-09-27T21:29:06.997Z,11.60
2018-09-27T21:31:35.512Z,11.70
2018-09-27T21:34:04.064Z,11.60
2018-09-27T21:36:32.581Z,11.60
2018-09-27T21:39:01.134Z,11.60
2018-09-27T21:41:29.645Z,11.60
2018-09-27T21:43:58.186Z,11.50
2018-09-27T21:46:26.697Z,11.50
2018-09-27T21:48:55.235Z,11.40
2018-09-27T21:51:23.735Z,11.40
2018-09-27T21:53:52.263Z,11.30
2018-09-27T21:56:20.810Z,11.30
2018-09-27T21:58:49.337Z,11.30
2018-09-27T22:01:18.347Z,11.30
2018-09-27T22:03:47.128Z,11.30
2018-09-27T22:06:15.674Z,11.30
2018-09-27T22:08:44.193Z,11.20
2018-09-27T22:11:12.739Z,11.20
2018-09-27T22:13:41.237Z,11.30
2018-09-27T22:16:09.778Z,11.30
2018-09-27T22:18:38.432Z,11.20
2018-09-27T22:21:07.121Z,11.20
2018-09-27T22:23:35.656Z,11.20
2018-09-27T22:26:04.210Z,11.20
2018-09-27T22:28:32.726Z,11.10
2018-09-27T22:31:01.253Z,11.00
2018-09-27T22:33:29.769Z,11.00
2018-09-27T22:35:58.305Z,11.00
2018-09-27T22:38:26.826Z,11.00
2018-09-27T22:40:55.361Z,11.00
2018-09-27T22:43:23.896Z,11.00
2018-09-27T22:45:52.425Z,10.90
2018-09-27T22:48:20.929Z,10.90
2018-09-27T22:50:49.465Z,10.90
2018-09-27T22:53:17.985Z,10.80
2018-09-27T22:55:46.553Z,10.80
2018-09-27T22:58:15.062Z,10.80
2018-09-27T23:00:43.698Z,10.80
2018-09-27T23:03:12.223Z,10.70
2018-09-27T23:05:40.848Z,10.70
2018-09-27T23:08:09.377Z,10.60
2018-09-27T23:10:37.998Z,10.70
2018-09-27T23:13:06.511Z,10.60
2018-09-27T23:15:35.053Z,10.60
2018-09-27T23:18:03.605Z,10.60
2018-09-27T23:20:32.154Z,10.60
2018-09-27T23:23:00.673Z,10.50
2018-09-27T23:25:29.185Z,10.60
2018-09-27T23:27:57.757Z,10.50
2018-09-27T23:30:26.270Z,10.50
2018-09-27T23:32:54.808Z,10.50
2018-09-27T23:35:23.358Z,10.30
2018-09-27T23:37:51.969Z,10.20
2018-09-27T23:40:20.485Z,10.20
2018-09-27T23:42:49.069Z,10.30
2018-09-27T23:45:17.582Z,10.30
2018-09-27T23:47:46.108Z,10.30
2018-09-27T23:50:14.632Z,10.40
2018-09-27T23:52:43.194Z,10.40
2018-09-27T23:55:11.702Z,10.40
2018-09-27T23:57:40.233Z,10.30
